Glen Flora, Texas
Current Conditions -  °F | °C
As of 9:15 PM on Sunday 21 Dec 2014 (Local Time) from KARM Reporting Station
Overcast Overcast  
Wind Chill: 56°   Ceiling: 4200
Heat Index: 56°   Visibility: 7mi
Dew Point: 54°   Wind: 7mph
Humidity: 94%   Direction: 120°ESE
Pressure: 29.91"   Gusts: NA
Location:  29.35°N, 96.19°W
Report Text: KARM 220315Z AUTO 12006KT 7SM OVC042 13/12 A2991 RMK AO2 T01320123
Loading
Personal Weather Stations






























Interactive Weather Map New forecast layout! Learn more

10-Day Weather Forecast

Advertisements
Track Severe Weather on mobile